createdAt,value
2022-08-20T00:02:18.273Z,0.88715
2022-08-20T00:07:19.962Z,0.88715
2022-08-20T00:12:21.901Z,0
2022-08-20T00:17:24.092Z,0
2022-08-20T00:22:25.868Z,0
2022-08-20T00:27:27.940Z,0
2022-08-20T00:32:30.042Z,0
2022-08-20T00:37:31.662Z,0
2022-08-20T00:42:33.238Z,0
2022-08-20T00:47:35.221Z,0
2022-08-20T00:52:36.632Z,0
2022-08-20T00:57:58.846Z,0
2022-08-20T01:03:03.822Z,0.88715
2022-08-20T01:08:05.322Z,0.88715
2022-08-20T01:13:06.872Z,0.88715
2022-08-20T01:18:08.738Z,0.88715
2022-08-20T01:23:10.281Z,0.88715
2022-08-20T01:28:11.979Z,0
2022-08-20T01:33:14.378Z,0.88715
2022-08-20T01:38:16.099Z,0
2022-08-20T01:43:18.168Z,0
2022-08-20T01:48:20.593Z,0
2022-08-20T01:53:22.526Z,0
2022-08-20T01:58:24.326Z,0
2022-08-20T02:03:26.415Z,0.88715
2022-08-20T02:08:28.381Z,0
2022-08-20T02:13:30.425Z,0.88715
2022-08-20T02:18:32.489Z,0
2022-08-20T02:23:34.251Z,0
2022-08-20T02:28:36.429Z,0
2022-08-20T02:33:39.130Z,0
2022-08-20T02:38:41.640Z,0.88715
2022-08-20T02:43:43.508Z,0
2022-08-20T02:48:45.458Z,0
2022-08-20T02:53:47.205Z,0.88715
2022-08-20T02:58:49.092Z,0.88715
2022-08-20T03:03:51.535Z,0
2022-08-20T03:08:53.187Z,0
2022-08-20T03:13:54.941Z,0
2022-08-20T03:18:56.617Z,0.88715
2022-08-20T03:23:58.040Z,0
2022-08-20T03:28:59.563Z,0.88715
2022-08-20T03:34:01.819Z,0
2022-08-20T03:39:03.538Z,0.88715
2022-08-20T03:44:05.085Z,0.88715
2022-08-20T03:49:07.394Z,0.88715
2022-08-20T03:54:09.702Z,0.88715
2022-08-20T03:59:11.945Z,0.88715
2022-08-20T04:04:13.965Z,0.88715
2022-08-20T04:09:15.702Z,1.16185
2022-08-20T04:14:19.639Z,0.88885
2022-08-20T04:19:22.758Z,2.4888
2022-08-20T04:24:31.648Z,5.1456
2022-08-20T04:29:35.328Z,16.1556
2022-08-20T04:34:37.697Z,35.1141
2022-08-20T04:39:39.597Z,61.83665
2022-08-20T04:44:41.480Z,92.04475
2022-08-20T04:49:42.994Z,125.978
2022-08-20T04:54:44.853Z,154.4709
2022-08-20T04:59:46.934Z,197.56965
2022-08-20T05:04:49.217Z,220.6222
2022-08-20T05:09:50.979Z,240.1892
2022-08-20T05:14:52.419Z,269.2906
2022-08-20T05:19:54.198Z,288.80245
2022-08-20T05:24:55.961Z,309.47615
2022-08-20T05:29:57.701Z,330.88765
2022-08-20T05:35:02.348Z,365.4484
2022-08-20T05:40:03.997Z,397.0218
2022-08-20T05:45:11.082Z,426.32665
2022-08-20T05:50:23.214Z,444.80595
2022-08-20T05:55:25.799Z,456.0194
2022-08-20T06:00:28.300Z,473.83505
2022-08-20T06:05:30.935Z,499.4889
2022-08-20T06:10:33.286Z,530.26935
2022-08-20T06:15:35.427Z,577.3157
2022-08-20T06:20:37.256Z,627.42355
2022-08-20T06:25:39.006Z,672.6444
2022-08-20T06:30:40.771Z,707.70335
2022-08-20T06:35:42.999Z,737.19265
2022-08-20T06:40:45.133Z,760.31935
2022-08-20T06:45:47.097Z,777.21275
2022-08-20T06:50:49.286Z,802.4787
2022-08-20T06:55:51.287Z,824.44355
2022-08-20T07:00:53.127Z,841.1525
2022-08-20T07:05:55.730Z,870.08845
2022-08-20T07:10:57.207Z,888.93665
2022-08-20T07:15:58.790Z,905.0371
2022-08-20T07:21:00.434Z,932.2027
2022-08-20T07:26:01.873Z,950.99575
2022-08-20T07:31:13.476Z,971.1351
2022-08-20T07:36:16.850Z,1000.93815
2022-08-20T07:41:18.628Z,1037.15895
2022-08-20T07:46:20.789Z,1054.44025
2022-08-20T07:51:22.706Z,1086.16195
2022-08-20T07:56:24.653Z,1102.22625
2022-08-20T08:01:26.814Z,1139.9968
2022-08-20T08:06:31.108Z,1179.11365
2022-08-20T08:11:33.472Z,1206.31725
2022-08-20T08:16:35.023Z,1235.10675
2022-08-20T08:21:36.618Z,1260.72445
2022-08-20T08:26:38.076Z,1287.19025
2022-08-20T08:31:39.753Z,1319.53945
2022-08-20T08:36:41.637Z,1339.1996
2022-08-20T08:41:43.211Z,1374.1121
2022-08-20T08:46:44.649Z,1404.5978
2022-08-20T08:51:46.473Z,1420.23805
2022-08-20T08:56:49.922Z,1455.64875
2022-08-20T09:01:53.750Z,1492.14715
2022-08-20T09:06:58.640Z,1527.51985
2022-08-20T09:12:00.114Z,1568.88625
2022-08-20T09:17:01.824Z,1599.6857
2022-08-20T09:22:03.757Z,1647.3044
2022-08-20T09:27:05.423Z,1684.282
2022-08-20T09:32:06.929Z,1730.73885
2022-08-20T09:37:09.035Z,1761.85205
2022-08-20T09:42:10.562Z,1811.3514
2022-08-20T09:47:12.000Z,1854.9312
2022-08-20T09:52:13.684Z,1894.4721
2022-08-20T09:57:15.327Z,1936.1884
2022-08-20T10:02:17.188Z,1965.14335
2022-08-20T10:07:20.121Z,2009.4058
2022-08-20T10:12:21.867Z,2049.057
2022-08-20T10:17:23.710Z,2090.4044
2022-08-20T10:22:25.690Z,2109.93525
2022-08-20T10:27:27.463Z,2163.4735
2022-08-20T10:32:29.222Z,2202.037
2022-08-20T10:37:32.072Z,2214.7622
2022-08-20T10:42:33.953Z,2269.75705
2022-08-20T10:47:36.132Z,2302.6026
2022-08-20T10:52:38.204Z,2367.3163
2022-08-20T10:57:39.946Z,2469.39365
2022-08-20T11:02:41.715Z,2495.9679
2022-08-20T11:07:50.695Z,2547.3289
2022-08-20T11:12:57.904Z,2565.97365
2022-08-20T11:17:59.593Z,2591.1103
2022-08-20T11:23:01.375Z,2621.76145
2022-08-20T11:28:03.030Z,2664.91535
2022-08-20T11:33:04.648Z,2650.2715
2022-08-20T11:38:07.531Z,2677.23365
2022-08-20T11:43:16.265Z,2669.13685
2022-08-20T11:48:18.966Z,2680.25715
2022-08-20T11:53:21.570Z,2697.0384
2022-08-20T11:58:24.001Z,2696.023
2022-08-20T12:03:25.763Z,2715.62615
2022-08-20T12:08:28.291Z,2727.07735
2022-08-20T12:13:47.201Z,2753.7619
2022-08-20T12:18:50.145Z,2728.19935
2022-08-20T12:23:51.741Z,2731.09355
2022-08-20T12:28:53.332Z,2712.94515
2022-08-20T12:33:55.136Z,2715.24985
2022-08-20T12:38:57.866Z,2696.99115
2022-08-20T12:43:59.505Z,2690.5354
2022-08-20T12:49:01.383Z,2667.8879
2022-08-20T12:54:03.234Z,2645.3697
2022-08-20T12:59:04.999Z,2603.92915
2022-08-20T13:04:06.749Z,2586.1135
2022-08-20T13:09:09.402Z,2566.5275
2022-08-20T13:14:11.306Z,2520.0345
2022-08-20T13:19:12.773Z,2488.40595
2022-08-20T13:24:14.680Z,2421.36855
2022-08-20T13:29:17.384Z,2363.0536
2022-08-20T13:34:19.270Z,2299.99995
2022-08-20T13:39:21.357Z,2225.1795
2022-08-20T13:44:31.340Z,2152.2397
2022-08-20T13:49:35.066Z,2064.6579
2022-08-20T13:54:36.816Z,2017.74085
2022-08-20T13:59:39.561Z,1963.6131
2022-08-20T14:04:41.674Z,1903.49165
2022-08-20T14:09:43.603Z,1855.52305
2022-08-20T14:14:45.481Z,1792.76415
2022-08-20T14:19:47.336Z,1718.6815
2022-08-20T14:24:49.164Z,1635.91255
2022-08-20T14:29:51.238Z,1543.0007
2022-08-20T14:34:53.014Z,1449.11145
2022-08-20T14:39:55.079Z,1346.2963
2022-08-20T14:44:56.918Z,1223.4711
2022-08-20T14:49:58.380Z,1067.56075
2022-08-20T14:55:00.226Z,901.2489
2022-08-20T15:00:01.747Z,730.05005
2022-08-20T15:05:03.200Z,586.477
2022-08-20T15:10:09.392Z,434.82615
2022-08-20T15:15:15.221Z,314.1212
2022-08-20T15:20:20.153Z,235.4295
2022-08-20T15:25:22.551Z,184.705
2022-08-20T15:30:24.569Z,123.7885
2022-08-20T15:35:26.324Z,99.4056
2022-08-20T15:40:29.104Z,76.3702
2022-08-20T15:45:31.137Z,50.4216
2022-08-20T15:50:32.876Z,27.11045
2022-08-20T15:55:34.824Z,8.11825
2022-08-20T16:00:36.685Z,4.9776
2022-08-20T16:05:38.545Z,2.6073
2022-08-20T16:10:40.679Z,0.9481
2022-08-20T16:15:45.109Z,1.16185
2022-08-20T16:20:49.076Z,0
2022-08-20T16:25:50.731Z,0.88715
2022-08-20T16:30:52.662Z,0.88715
2022-08-20T16:35:54.357Z,0
2022-08-20T16:40:56.182Z,0.88715
2022-08-20T16:45:57.647Z,0.88715
2022-08-20T16:50:59.229Z,0
2022-08-20T16:56:00.682Z,0
2022-08-20T17:01:02.298Z,0.88715
2022-08-20T17:06:04.086Z,0
2022-08-20T17:11:05.856Z,0
2022-08-20T17:16:07.303Z,0
2022-08-20T17:21:08.841Z,0.88715
2022-08-20T17:26:10.402Z,0
2022-08-20T17:31:11.953Z,0
2022-08-20T17:36:13.590Z,0.88715
2022-08-20T17:41:17.490Z,0.88715
2022-08-20T17:46:19.555Z,0
2022-08-20T17:51:21.317Z,0
2022-08-20T17:56:23.118Z,0.88715
2022-08-20T18:01:24.914Z,0.88715
2022-08-20T18:06:30.472Z,0
2022-08-20T18:11:32.896Z,0
2022-08-20T18:16:34.745Z,0
2022-08-20T18:21:36.468Z,0.88715
2022-08-20T18:26:38.525Z,0
2022-08-20T18:31:41.671Z,0.88715
2022-08-20T18:36:43.654Z,0
2022-08-20T18:41:45.694Z,0
2022-08-20T18:46:47.655Z,0
2022-08-20T18:51:49.634Z,0
2022-08-20T18:56:51.627Z,0
2022-08-20T19:01:53.464Z,0
2022-08-20T19:06:57.631Z,0.88715
2022-08-20T19:11:59.763Z,0.88715
2022-08-20T19:17:01.307Z,0.88715
2022-08-20T19:22:03.074Z,0
2022-08-20T19:27:04.794Z,0
2022-08-20T19:32:06.580Z,0
2022-08-20T19:37:28.096Z,0
2022-08-20T19:42:40.405Z,0.88715
2022-08-20T19:47:41.868Z,0.88715
2022-08-20T19:52:43.313Z,0
2022-08-20T19:57:45.299Z,0
2022-08-20T20:02:46.742Z,0
2022-08-20T20:07:48.169Z,0
2022-08-20T20:12:49.925Z,0
2022-08-20T20:17:51.496Z,0
2022-08-20T20:22:53.146Z,0
2022-08-20T20:27:54.723Z,0
2022-08-20T20:32:56.440Z,0.88715
2022-08-20T20:37:58.014Z,0
2022-08-20T20:42:59.780Z,0
2022-08-20T20:48:01.899Z,0
2022-08-20T20:53:03.663Z,0.88715
2022-08-20T20:58:05.539Z,0
2022-08-20T21:03:07.050Z,0
2022-08-20T21:08:08.790Z,0
2022-08-20T21:13:10.968Z,0
2022-08-20T21:18:12.481Z,0
2022-08-20T21:23:14.094Z,0
2022-08-20T21:28:15.718Z,0
2022-08-20T21:33:17.356Z,0
2022-08-20T21:38:18.957Z,0
2022-08-20T21:43:21.072Z,0
2022-08-20T21:48:22.523Z,0
2022-08-20T21:53:24.042Z,0
2022-08-20T21:58:25.490Z,0
2022-08-20T22:03:26.967Z,0
2022-08-20T22:08:28.755Z,0.88715
2022-08-20T22:13:30.680Z,0
2022-08-20T22:18:32.623Z,0
2022-08-20T22:23:34.413Z,0
2022-08-20T22:28:36.241Z,0
2022-08-20T22:33:38.804Z,0
2022-08-20T22:38:40.556Z,0
2022-08-20T22:43:52.156Z,0.88715
2022-08-20T22:48:59.451Z,0.88715
2022-08-20T22:54:00.905Z,0.88715
2022-08-20T22:59:02.539Z,0.88715
2022-08-20T23:04:05.122Z,0
2022-08-20T23:09:06.533Z,0
2022-08-20T23:14:08.823Z,0
2022-08-20T23:19:10.563Z,0
2022-08-20T23:24:14.105Z,0
2022-08-20T23:29:16.282Z,0.88715
2022-08-20T23:34:27.873Z,0
2022-08-20T23:39:29.534Z,0.88715
2022-08-20T23:44:31.504Z,0
2022-08-20T23:49:33.445Z,0
2022-08-20T23:54:35.318Z,0.88715
2022-08-20T23:59:37.207Z,0
